createdAt,value
2018-08-30T00:00:57.960Z,15.65
2018-08-30T00:01:57.921Z,15.70
2018-08-30T00:02:57.890Z,15.75
2018-08-30T00:03:57.852Z,15.61
2018-08-30T00:04:57.816Z,15.64
2018-08-30T00:05:57.792Z,15.55
2018-08-30T00:06:57.742Z,15.57
2018-08-30T00:07:57.709Z,15.54
2018-08-30T00:08:57.672Z,15.57
2018-08-30T00:09:57.636Z,15.58
2018-08-30T00:10:57.607Z,15.62
2018-08-30T00:11:57.571Z,15.54
2018-08-30T00:12:57.534Z,15.49
2018-08-30T00:13:57.503Z,15.61
2018-08-30T00:14:57.462Z,15.59
2018-08-30T00:15:57.428Z,15.59
2018-08-30T00:16:57.394Z,15.55
2018-08-30T00:17:57.361Z,15.59
2018-08-30T00:18:57.320Z,15.54
2018-08-30T00:19:57.285Z,15.49
2018-08-30T00:20:57.253Z,15.49
2018-08-30T00:21:57.219Z,15.47
2018-08-30T00:22:57.186Z,15.47
2018-08-30T00:23:57.149Z,15.44
2018-08-30T00:24:57.114Z,15.51
2018-08-30T00:25:57.077Z,15.49
2018-08-30T00:26:57.039Z,15.42
2018-08-30T00:27:57.007Z,15.36
2018-08-30T00:28:56.963Z,15.40
2018-08-30T00:29:56.932Z,15.36
2018-08-30T00:30:56.901Z,15.29
2018-08-30T00:31:56.876Z,15.19
2018-08-30T00:32:56.823Z,15.27
2018-08-30T00:33:56.788Z,15.28
2018-08-30T00:34:56.756Z,15.31
2018-08-30T00:35:56.721Z,15.39
2018-08-30T00:36:56.688Z,15.47
2018-08-30T00:37:56.658Z,15.47
2018-08-30T00:38:56.613Z,15.51
2018-08-30T00:39:56.575Z,15.40
2018-08-30T00:40:56.549Z,15.47
2018-08-30T00:41:56.505Z,15.49
2018-08-30T00:42:56.471Z,15.49
2018-08-30T00:43:56.436Z,15.61
2018-08-30T00:44:56.410Z,15.44
2018-08-30T00:45:56.368Z,15.43
2018-08-30T00:46:56.328Z,15.46
2018-08-30T00:47:56.290Z,15.43
2018-08-30T00:48:56.261Z,15.44
2018-08-30T00:49:56.224Z,15.37
2018-08-30T00:50:56.185Z,15.36
2018-08-30T00:51:56.151Z,15.37
2018-08-30T00:52:56.111Z,15.25
2018-08-30T00:53:56.081Z,15.24
2018-08-30T00:54:56.051Z,15.21
2018-08-30T00:55:56.038Z,15.15
2018-08-30T00:56:55.988Z,15.27
2018-08-30T00:57:55.940Z,15.24
2018-08-30T00:58:55.900Z,15.07
2018-08-30T00:59:55.870Z,15.10
2018-08-30T01:00:55.830Z,15.15
2018-08-30T01:01:55.795Z,15.18
2018-08-30T01:02:55.762Z,15.15
2018-08-30T01:03:55.727Z,15.21
2018-08-30T01:04:55.685Z,15.18
2018-08-30T01:05:55.651Z,15.19
2018-08-30T01:06:55.619Z,15.22
2018-08-30T01:07:55.585Z,15.21
2018-08-30T01:08:55.549Z,15.22
2018-08-30T01:09:55.512Z,15.19
2018-08-30T01:10:55.473Z,15.25
2018-08-30T01:11:55.439Z,15.31
2018-08-30T01:12:55.408Z,15.22
2018-08-30T01:13:55.371Z,15.33
2018-08-30T01:14:55.336Z,15.22
2018-08-30T01:15:55.300Z,15.19
2018-08-30T01:16:55.264Z,15.22
2018-08-30T01:17:55.232Z,15.33
2018-08-30T01:18:55.187Z,15.24
2018-08-30T01:19:55.151Z,15.17
2018-08-30T01:20:55.123Z,15.25
2018-08-30T01:21:55.085Z,15.28
2018-08-30T01:22:55.053Z,15.28
2018-08-30T01:23:55.009Z,15.22
2018-08-30T01:24:54.975Z,15.18
2018-08-30T01:25:54.940Z,15.15
2018-08-30T01:26:54.905Z,15.19
2018-08-30T01:27:54.880Z,15.06
2018-08-30T01:28:54.836Z,15.09
2018-08-30T01:29:54.798Z,15.02
2018-08-30T01:30:54.766Z,15.14
2018-08-30T01:31:54.723Z,15.14
2018-08-30T01:32:54.693Z,15.17
2018-08-30T01:33:54.655Z,15.10
2018-08-30T01:34:54.621Z,15.07
2018-08-30T01:35:54.589Z,15.10
2018-08-30T01:36:54.545Z,15.03
2018-08-30T01:37:54.512Z,15.06
2018-08-30T01:38:54.478Z,15.06
2018-08-30T01:39:54.448Z,15.11
2018-08-30T01:40:54.409Z,15.15
2018-08-30T01:41:54.372Z,15.18
2018-08-30T01:42:54.335Z,15.18
2018-08-30T01:43:54.299Z,15.19
2018-08-30T01:44:54.260Z,15.22
2018-08-30T01:45:54.226Z,15.27
2018-08-30T01:46:54.197Z,15.15
2018-08-30T01:47:54.160Z,15.21
2018-08-30T01:48:54.123Z,15.24
2018-08-30T01:49:54.085Z,15.31
2018-08-30T01:50:54.056Z,15.25
2018-08-30T01:51:54.010Z,15.28
2018-08-30T01:52:53.981Z,15.24
2018-08-30T01:53:53.943Z,15.28
2018-08-30T01:54:53.905Z,15.28
2018-08-30T01:55:53.867Z,15.28
2018-08-30T01:56:53.833Z,15.29
2018-08-30T01:57:53.801Z,15.21
2018-08-30T01:58:53.764Z,15.22
2018-08-30T01:59:53.730Z,15.10
2018-08-30T02:00:53.697Z,15.15
2018-08-30T02:01:53.662Z,15.19
2018-08-30T02:02:53.621Z,15.19
2018-08-30T02:03:53.582Z,15.18
2018-08-30T02:04:53.547Z,15.07
2018-08-30T02:05:53.516Z,15.21
2018-08-30T02:06:53.480Z,15.24
2018-08-30T02:07:53.446Z,15.18
2018-08-30T02:08:53.408Z,15.02
2018-08-30T02:09:53.371Z,15.07
2018-08-30T02:10:53.336Z,15.04
2018-08-30T02:11:53.303Z,15.04
2018-08-30T02:12:53.267Z,15.07
2018-08-30T02:13:53.230Z,15.04
2018-08-30T02:14:53.201Z,14.99
2018-08-30T02:15:53.154Z,15.06
2018-08-30T02:16:53.121Z,14.99
2018-08-30T02:17:53.084Z,14.99
2018-08-30T02:18:53.055Z,14.99
2018-08-30T02:19:53.016Z,15.04
2018-08-30T02:20:52.992Z,15.09
2018-08-30T02:21:52.944Z,15.04
2018-08-30T02:22:52.905Z,15.02
2018-08-30T02:23:52.867Z,15.06
2018-08-30T02:24:52.838Z,15.04
2018-08-30T02:25:52.809Z,15.09
2018-08-30T02:26:52.782Z,15.17
2018-08-30T02:27:52.724Z,15.11
2018-08-30T02:28:52.688Z,15.03
2018-08-30T02:29:52.657Z,15.06
2018-08-30T02:30:52.623Z,15.06
2018-08-30T02:31:52.590Z,15.06
2018-08-30T02:32:52.556Z,15.06
2018-08-30T02:33:52.518Z,15.15
2018-08-30T02:34:52.478Z,15.02
2018-08-30T02:35:52.439Z,15.11
2018-08-30T02:36:52.405Z,15.11
2018-08-30T02:37:52.376Z,15.10
2018-08-30T02:38:52.335Z,15.14
2018-08-30T02:39:52.302Z,15.15
2018-08-30T02:40:52.266Z,15.10
2018-08-30T02:41:52.227Z,15.10
2018-08-30T02:42:52.196Z,15.04
2018-08-30T02:43:52.164Z,15.09
2018-08-30T02:44:52.124Z,15.17
2018-08-30T02:45:52.092Z,15.14
2018-08-30T02:46:52.049Z,15.04
2018-08-30T02:47:52.015Z,15.10
2018-08-30T02:48:51.986Z,14.97
2018-08-30T02:49:51.943Z,14.99
2018-08-30T02:50:51.926Z,15.09
2018-08-30T02:51:51.877Z,15.06
2018-08-30T02:52:51.837Z,15.06
2018-08-30T02:53:51.803Z,15.06
2018-08-30T02:54:51.766Z,15.14
2018-08-30T02:55:51.726Z,15.04
2018-08-30T02:56:51.699Z,15.04
2018-08-30T02:57:51.663Z,15.03
2018-08-30T02:58:51.620Z,14.97
2018-08-30T02:59:51.582Z,15.14
2018-08-30T03:00:51.548Z,15.07
2018-08-30T03:01:51.514Z,15.09
2018-08-30T03:02:51.479Z,15.11
2018-08-30T03:03:51.446Z,15.17
2018-08-30T03:04:51.409Z,15.09
2018-08-30T03:05:51.378Z,15.09
2018-08-30T03:06:51.338Z,15.18
2018-08-30T03:07:51.298Z,15.22
2018-08-30T03:08:51.264Z,15.28
2018-08-30T03:09:51.229Z,15.21
2018-08-30T03:10:51.194Z,15.15
2018-08-30T03:11:51.163Z,15.09
2018-08-30T03:12:51.119Z,15.14
2018-08-30T03:13:51.087Z,15.18
2018-08-30T03:14:51.054Z,15.14
2018-08-30T03:15:51.020Z,15.15
2018-08-30T03:16:50.982Z,15.15
2018-08-30T03:17:50.945Z,15.15
2018-08-30T03:18:50.910Z,15.10
2018-08-30T03:19:50.869Z,15.10
2018-08-30T03:20:50.836Z,15.19
2018-08-30T03:21:50.801Z,15.19
2018-08-30T03:22:50.768Z,15.24
2018-08-30T03:23:50.734Z,15.36
2018-08-30T03:24:50.699Z,15.18
2018-08-30T03:25:50.662Z,15.19
2018-08-30T03:26:50.622Z,15.19
2018-08-30T03:27:50.583Z,15.25
2018-08-30T03:28:50.556Z,15.29
2018-08-30T03:29:50.521Z,15.22
2018-08-30T03:30:50.523Z,15.37
2018-08-30T03:31:50.441Z,15.28
2018-08-30T03:32:50.407Z,15.37
2018-08-30T03:33:50.372Z,15.40
2018-08-30T03:34:50.346Z,15.43
2018-08-30T03:35:50.304Z,15.39
2018-08-30T03:36:50.272Z,15.42
2018-08-30T03:37:50.231Z,15.42
2018-08-30T03:38:50.197Z,15.33
2018-08-30T03:39:50.158Z,15.22
2018-08-30T03:40:50.120Z,15.25
2018-08-30T03:41:50.090Z,15.31
2018-08-30T03:42:50.053Z,15.28
2018-08-30T03:43:50.019Z,15.29
2018-08-30T03:44:49.977Z,15.33
2018-08-30T03:45:49.945Z,15.35
2018-08-30T03:46:49.928Z,15.40
2018-08-30T03:47:49.878Z,15.36
2018-08-30T03:48:49.844Z,15.44
2018-08-30T03:49:49.809Z,15.39
2018-08-30T03:50:49.766Z,15.37
2018-08-30T03:51:49.729Z,15.27
2018-08-30T03:52:49.696Z,15.31
2018-08-30T04:06:46.232Z,15.33
2018-08-30T04:07:46.149Z,15.22
2018-08-30T04:08:46.106Z,15.21
2018-08-30T04:09:46.132Z,15.22
2018-08-30T04:10:46.025Z,15.24
2018-08-30T04:11:45.991Z,15.28
2018-08-30T04:12:45.949Z,15.24
2018-08-30T04:13:45.931Z,15.14
2018-08-30T04:14:45.884Z,15.15
2018-08-30T04:15:45.839Z,15.22
2018-08-30T04:16:45.801Z,15.15
2018-08-30T04:17:45.774Z,15.19
2018-08-30T04:18:45.729Z,15.07
2018-08-30T04:19:45.688Z,15.09
2018-08-30T04:20:45.653Z,15.17
2018-08-30T04:21:45.618Z,15.11
2018-08-30T04:22:45.577Z,15.19
2018-08-30T04:23:45.550Z,15.22
2018-08-30T04:24:45.511Z,15.14
2018-08-30T04:25:45.468Z,15.14
2018-08-30T04:26:45.438Z,15.19
2018-08-30T04:27:45.401Z,15.21
2018-08-30T04:28:45.363Z,15.27
2018-08-30T04:29:45.327Z,15.24
2018-08-30T04:30:45.286Z,15.27
2018-08-30T04:31:45.260Z,15.28
2018-08-30T04:32:45.217Z,15.22
2018-08-30T04:33:45.179Z,15.19
2018-08-30T04:34:45.150Z,15.25
2018-08-30T04:35:45.111Z,15.22
2018-08-30T04:36:45.072Z,15.24
2018-08-30T04:37:45.038Z,15.18
2018-08-30T04:38:45.012Z,15.28
2018-08-30T04:39:44.966Z,15.27
2018-08-30T04:40:44.929Z,15.19
2018-08-30T04:41:44.906Z,15.21
2018-08-30T04:42:44.936Z,15.19
2018-08-30T04:43:44.820Z,15.22
2018-08-30T04:44:44.784Z,15.18
2018-08-30T04:45:44.750Z,15.15
2018-08-30T04:46:44.719Z,15.22
2018-08-30T04:47:44.688Z,15.19
2018-08-30T04:48:44.646Z,15.22
2018-08-30T04:49:44.608Z,15.21
2018-08-30T04:50:44.570Z,15.18
2018-08-30T04:51:44.537Z,15.21
2018-08-30T04:52:44.501Z,15.25
2018-08-30T04:53:44.470Z,15.21
2018-08-30T04:54:44.428Z,15.22
2018-08-30T04:55:44.400Z,15.22
2018-08-30T04:56:44.358Z,15.27
2018-08-30T04:57:44.317Z,15.28
2018-08-30T04:58:44.290Z,15.28
2018-08-30T04:59:44.251Z,15.25
2018-08-30T05:00:44.214Z,15.37
2018-08-30T05:01:44.200Z,15.29
2018-08-30T05:02:44.140Z,15.27
2018-08-30T05:03:44.110Z,15.29
2018-08-30T05:04:44.067Z,15.31
2018-08-30T05:05:44.034Z,15.33
2018-08-30T05:06:44.004Z,15.19
2018-08-30T05:07:43.964Z,15.21
2018-08-30T05:08:43.926Z,15.27
2018-08-30T05:09:43.889Z,15.29
2018-08-30T05:10:43.862Z,15.33
2018-08-30T05:11:43.830Z,15.27
2018-08-30T05:12:43.784Z,15.22
2018-08-30T05:13:43.757Z,15.24
2018-08-30T05:14:43.709Z,15.24
2018-08-30T05:15:43.676Z,15.21
2018-08-30T05:16:43.641Z,15.19
2018-08-30T05:17:43.606Z,15.21
2018-08-30T05:18:43.573Z,15.18
2018-08-30T05:19:43.540Z,15.19
2018-08-30T05:20:43.507Z,15.21
2018-08-30T05:21:43.480Z,15.28
2018-08-30T05:22:43.425Z,15.31
2018-08-30T05:23:43.392Z,15.21
2018-08-30T05:24:43.358Z,15.18
2018-08-30T05:25:43.327Z,15.18
2018-08-30T05:26:43.282Z,15.29
2018-08-30T05:27:43.249Z,15.29
2018-08-30T05:28:43.214Z,15.25
2018-08-30T05:29:43.198Z,15.25
2018-08-30T05:30:43.153Z,15.42
2018-08-30T05:31:43.111Z,15.28
2018-08-30T05:32:43.072Z,15.27
2018-08-30T05:33:43.040Z,15.24
2018-08-30T05:34:43.001Z,15.24
2018-08-30T05:35:42.982Z,15.33
2018-08-30T05:36:42.927Z,15.29
2018-08-30T05:37:42.895Z,15.29
2018-08-30T05:38:42.872Z,15.42
2018-08-30T05:39:42.825Z,15.27
2018-08-30T05:40:42.785Z,15.35
2018-08-30T05:41:42.750Z,15.36
2018-08-30T05:42:42.722Z,15.36
2018-08-30T05:43:42.684Z,15.33
2018-08-30T05:44:42.663Z,15.42
2018-08-30T05:45:42.615Z,15.39
2018-08-30T05:46:42.575Z,15.37
2018-08-30T05:47:42.540Z,15.43
2018-08-30T05:48:42.502Z,15.47
2018-08-30T05:49:42.464Z,15.42
2018-08-30T05:50:42.435Z,15.44
2018-08-30T05:51:42.399Z,15.46
2018-08-30T05:52:42.361Z,15.46
2018-08-30T05:53:42.330Z,15.46
2018-08-30T05:54:42.289Z,15.43
2018-08-30T05:55:42.254Z,15.55
2018-08-30T05:56:42.256Z,15.51
2018-08-30T05:57:42.190Z,15.58
2018-08-30T05:58:42.147Z,15.58
2018-08-30T05:59:42.770Z,15.62
2018-08-30T06:00:42.076Z,15.57
2018-08-30T06:01:42.039Z,15.55
2018-08-30T06:02:42.012Z,15.59
2018-08-30T06:03:41.974Z,15.65
2018-08-30T06:04:41.939Z,15.75
2018-08-30T06:05:41.905Z,15.68
2018-08-30T06:06:41.864Z,15.62
2018-08-30T06:07:41.830Z,15.67
2018-08-30T06:08:41.795Z,15.55
2018-08-30T06:09:41.756Z,15.61
2018-08-30T06:10:41.741Z,15.64
2018-08-30T06:11:41.690Z,15.62
2018-08-30T06:12:41.656Z,15.57
2018-08-30T06:13:41.617Z,15.54
2018-08-30T06:14:41.586Z,15.59
2018-08-30T06:15:41.552Z,15.57
2018-08-30T06:16:41.515Z,15.67
2018-08-30T06:17:41.479Z,15.72
2018-08-30T06:18:41.440Z,15.68
2018-08-30T06:19:41.407Z,15.70
2018-08-30T06:20:41.369Z,15.62
2018-08-30T06:21:41.332Z,15.76
2018-08-30T06:22:41.303Z,15.77
2018-08-30T06:23:41.266Z,15.86
2018-08-30T06:24:41.232Z,15.91
2018-08-30T06:25:41.203Z,15.90
2018-08-30T06:26:41.196Z,15.95
2018-08-30T06:27:41.126Z,15.91
2018-08-30T06:28:41.089Z,15.88
2018-08-30T06:29:41.060Z,15.77
2018-08-30T06:30:41.017Z,15.68
2018-08-30T06:31:40.985Z,15.75
2018-08-30T06:32:40.979Z,15.83
2018-08-30T06:33:40.910Z,15.92
2018-08-30T06:34:40.947Z,15.83
2018-08-30T06:35:40.866Z,15.88
2018-08-30T06:36:40.809Z,15.90
2018-08-30T06:37:40.779Z,15.92
2018-08-30T06:38:40.794Z,15.80
2018-08-30T06:39:40.701Z,15.94
2018-08-30T06:40:40.686Z,15.90
2018-08-30T06:41:40.629Z,15.88
2018-08-30T06:42:40.601Z,15.94
2018-08-30T06:43:40.563Z,15.98
2018-08-30T06:44:40.525Z,15.92
2018-08-30T06:45:40.487Z,15.86
2018-08-30T06:46:40.458Z,15.91
2018-08-30T06:47:40.428Z,15.86
2018-08-30T06:48:40.415Z,15.84
2018-08-30T06:49:40.352Z,15.80
2018-08-30T06:50:40.312Z,15.84
2018-08-30T06:51:40.278Z,15.88
2018-08-30T06:52:40.248Z,15.79
2018-08-30T06:53:40.210Z,15.84
2018-08-30T06:54:40.177Z,15.72
2018-08-30T06:55:40.143Z,15.79
2018-08-30T06:56:40.107Z,15.83
2018-08-30T06:57:40.074Z,15.75
2018-08-30T06:58:40.030Z,15.75
2018-08-30T06:59:39.999Z,15.79
2018-08-30T07:00:39.970Z,15.84
2018-08-30T07:01:39.932Z,15.91
2018-08-30T07:02:39.890Z,15.82
2018-08-30T07:03:39.861Z,15.90
2018-08-30T07:04:39.820Z,15.91
2018-08-30T07:05:39.791Z,15.88
2018-08-30T07:06:39.757Z,15.84
2018-08-30T07:07:39.722Z,15.94
2018-08-30T07:08:39.688Z,15.94
2018-08-30T07:09:39.649Z,15.91
2018-08-30T07:10:39.608Z,16.01
2018-08-30T07:11:39.576Z,15.86
2018-08-30T07:12:39.542Z,15.91
2018-08-30T07:13:39.506Z,16.02
2018-08-30T07:14:39.507Z,15.95
2018-08-30T07:15:39.439Z,15.92
2018-08-30T07:16:39.402Z,15.94
2018-08-30T07:17:39.366Z,15.88
2018-08-30T07:18:39.335Z,15.95
2018-08-30T07:19:39.298Z,15.94
2018-08-30T07:20:39.262Z,16.04
2018-08-30T07:21:39.228Z,15.95
2018-08-30T07:22:39.184Z,15.86
2018-08-30T07:23:39.153Z,15.91
2018-08-30T07:24:39.118Z,15.86
2018-08-30T07:25:39.088Z,15.88
2018-08-30T07:26:39.047Z,15.77
2018-08-30T07:27:39.013Z,15.83
2018-08-30T07:28:39.029Z,15.70
2018-08-30T07:29:38.950Z,15.76
2018-08-30T07:30:38.919Z,15.80
2018-08-30T07:31:38.876Z,15.79
2018-08-30T07:32:38.835Z,15.82
2018-08-30T07:33:38.799Z,15.88
2018-08-30T07:34:38.788Z,15.80
2018-08-30T07:35:38.737Z,15.88
2018-08-30T07:36:38.697Z,15.86
2018-08-30T07:37:38.669Z,15.90
2018-08-30T07:38:38.625Z,15.94
2018-08-30T07:39:38.593Z,15.92
2018-08-30T07:40:38.557Z,15.91
2018-08-30T07:41:38.520Z,15.91
2018-08-30T07:42:38.488Z,16.01
2018-08-30T07:43:38.452Z,15.92
2018-08-30T07:44:38.484Z,15.95
2018-08-30T07:45:38.384Z,16.00
2018-08-30T07:46:38.344Z,16.09
2018-08-30T07:47:38.310Z,16.02
2018-08-30T07:48:38.295Z,16.16
2018-08-30T07:49:38.244Z,16.21
2018-08-30T07:50:38.203Z,16.35
2018-08-30T07:51:38.170Z,16.36
2018-08-30T07:52:38.141Z,16.36
2018-08-30T07:53:38.099Z,16.46
2018-08-30T07:54:38.092Z,16.42
2018-08-30T07:55:38.034Z,16.35
2018-08-30T07:56:37.995Z,16.46
2018-08-30T07:57:37.962Z,16.42
2018-08-30T07:58:37.925Z,16.49
2018-08-30T07:59:37.897Z,16.47
2018-08-30T08:00:37.854Z,16.53
2018-08-30T08:01:37.817Z,16.64
2018-08-30T08:02:37.794Z,16.53
2018-08-30T08:03:37.753Z,16.53
2018-08-30T08:04:37.715Z,16.65
2018-08-30T08:05:37.677Z,16.60
2018-08-30T08:06:37.650Z,16.58
2018-08-30T08:07:37.611Z,16.66
2018-08-30T08:08:37.577Z,16.65
2018-08-30T08:09:37.543Z,16.65
2018-08-30T08:10:37.505Z,16.66
2018-08-30T08:11:37.478Z,16.66
2018-08-30T08:12:37.442Z,16.76
2018-08-30T08:13:37.409Z,16.84
2018-08-30T08:14:37.374Z,16.89
2018-08-30T08:15:37.334Z,16.89
2018-08-30T08:16:37.301Z,16.99
2018-08-30T08:17:37.266Z,16.99
2018-08-30T08:18:37.226Z,16.96
2018-08-30T08:19:37.198Z,17.02
2018-08-30T08:20:37.162Z,16.94
2018-08-30T08:21:37.130Z,16.84
2018-08-30T08:22:37.092Z,16.90
2018-08-30T08:23:37.056Z,16.91
2018-08-30T08:24:37.022Z,16.86
2018-08-30T08:25:36.987Z,16.66
2018-08-30T08:26:36.960Z,16.66
2018-08-30T08:27:36.923Z,16.64
2018-08-30T08:28:36.891Z,16.65
2018-08-30T08:29:36.851Z,16.76
2018-08-30T08:30:36.810Z,16.78
2018-08-30T08:31:36.782Z,16.84
2018-08-30T08:32:36.743Z,16.93
2018-08-30T08:33:36.708Z,17.05
2018-08-30T08:34:36.677Z,17.09
2018-08-30T08:35:36.643Z,17.29
2018-08-30T08:36:36.604Z,17.23
2018-08-30T08:37:36.570Z,17.34
2018-08-30T08:38:36.542Z,17.48
2018-08-30T08:39:36.527Z,17.54
2018-08-30T08:40:36.473Z,17.48
2018-08-30T08:41:36.436Z,17.48
2018-08-30T08:42:36.396Z,17.33
2018-08-30T08:43:36.362Z,17.54
2018-08-30T08:44:36.328Z,17.60
2018-08-30T08:45:36.291Z,17.63
2018-08-30T08:46:36.266Z,17.74
2018-08-30T08:47:36.230Z,17.60
2018-08-30T08:48:36.193Z,17.64
2018-08-30T08:49:36.162Z,17.68
2018-08-30T08:50:36.122Z,17.74
2018-08-30T08:51:36.090Z,17.65
2018-08-30T08:52:36.056Z,17.60
2018-08-30T08:53:36.035Z,17.57
2018-08-30T08:54:35.987Z,17.64
2018-08-30T08:55:35.954Z,17.46
2018-08-30T08:56:35.925Z,17.52
2018-08-30T08:57:35.884Z,17.52
2018-08-30T08:58:35.856Z,17.63
2018-08-30T08:59:35.819Z,17.67
2018-08-30T09:00:35.783Z,17.82
2018-08-30T09:01:35.753Z,17.89
2018-08-30T09:02:35.711Z,17.94
2018-08-30T09:03:35.687Z,18.00
2018-08-30T09:04:35.645Z,17.82
2018-08-30T09:05:35.608Z,17.80
2018-08-30T09:06:35.583Z,17.78
2018-08-30T09:07:35.602Z,17.76
2018-08-30T09:08:35.515Z,17.85
2018-08-30T09:09:35.478Z,17.80
2018-08-30T09:10:35.445Z,18.01
2018-08-30T09:11:35.409Z,18.07
2018-08-30T09:12:35.376Z,18.28
2018-08-30T09:13:35.358Z,18.47
2018-08-30T09:14:35.305Z,18.38
2018-08-30T09:15:35.279Z,18.34
2018-08-30T09:16:35.241Z,18.34
2018-08-30T09:17:35.207Z,18.25
2018-08-30T09:18:35.182Z,18.20
2018-08-30T09:19:35.144Z,18.00
2018-08-30T09:20:35.104Z,17.97
2018-08-30T09:21:35.075Z,17.92
2018-08-30T09:22:35.035Z,17.97
2018-08-30T09:23:35.003Z,17.89
2018-08-30T09:24:34.969Z,17.92
2018-08-30T09:25:34.938Z,17.85
2018-08-30T09:26:34.898Z,17.74
2018-08-30T09:27:34.868Z,17.64
2018-08-30T09:28:34.832Z,17.63
2018-08-30T09:29:34.797Z,17.72
2018-08-30T09:30:34.769Z,17.67
2018-08-30T09:31:34.734Z,17.74
2018-08-30T09:32:34.700Z,17.83
2018-08-30T09:33:34.669Z,18.04
2018-08-30T09:34:34.629Z,18.11
2018-08-30T09:35:34.597Z,18.25
2018-08-30T09:36:34.563Z,18.40
2018-08-30T09:37:34.528Z,18.50
2018-08-30T09:38:34.499Z,18.63
2018-08-30T09:39:34.469Z,18.66
2018-08-30T09:40:34.430Z,18.74
2018-08-30T09:41:34.398Z,18.62
2018-08-30T09:42:34.366Z,18.60
2018-08-30T09:43:34.337Z,18.52
2018-08-30T09:44:34.301Z,18.45
2018-08-30T09:45:34.268Z,18.44
2018-08-30T09:46:34.226Z,18.45
2018-08-30T09:47:34.195Z,18.44
2018-08-30T09:48:34.160Z,18.23
2018-08-30T09:49:34.135Z,18.16
2018-08-30T09:50:34.099Z,18.01
2018-08-30T09:51:34.062Z,17.92
2018-08-30T09:52:34.028Z,17.94
2018-08-30T09:53:33.996Z,18.04
2018-08-30T09:54:33.961Z,18.07
2018-08-30T09:55:33.960Z,18.18
2018-08-30T09:56:33.896Z,18.37
2018-08-30T09:57:33.927Z,18.40
2018-08-30T09:58:33.823Z,18.41
2018-08-30T09:59:33.790Z,18.45
2018-08-30T10:00:33.756Z,18.43
2018-08-30T10:01:33.720Z,18.41
2018-08-30T10:02:33.693Z,18.41
2018-08-30T10:03:33.660Z,18.56
2018-08-30T10:04:33.677Z,18.66
2018-08-30T10:05:33.595Z,18.77
2018-08-30T10:06:33.555Z,18.83
2018-08-30T10:21:10.609Z,18.90
2018-08-30T10:22:10.526Z,18.95
2018-08-30T10:23:10.489Z,18.89
2018-08-30T10:24:10.453Z,18.86
2018-08-30T10:25:10.420Z,18.86
2018-08-30T10:26:10.377Z,18.84
2018-08-30T10:27:10.345Z,18.88
2018-08-30T10:28:10.307Z,19.04
2018-08-30T10:29:10.275Z,19.14
2018-08-30T10:30:10.238Z,19.19
2018-08-30T10:31:10.203Z,19.18
2018-08-30T10:32:10.167Z,19.16
2018-08-30T10:33:10.137Z,19.18
2018-08-30T10:34:10.094Z,18.99
2018-08-30T10:35:10.062Z,19.07
2018-08-30T10:36:10.050Z,19.07
2018-08-30T10:37:10.020Z,19.15
2018-08-30T10:38:09.971Z,19.04
2018-08-30T10:39:09.927Z,19.16
2018-08-30T10:40:09.890Z,19.09
2018-08-30T10:41:09.854Z,18.96
2018-08-30T10:42:09.836Z,18.92
2018-08-30T10:43:09.795Z,18.92
2018-08-30T10:44:09.757Z,18.90
2018-08-30T10:45:09.721Z,18.96
2018-08-30T10:46:09.687Z,18.90
2018-08-30T10:47:09.661Z,18.93
2018-08-30T10:48:09.654Z,19.00
2018-08-30T10:49:09.595Z,19.08
2018-08-30T10:50:09.558Z,19.21
2018-08-30T10:51:09.524Z,19.19
2018-08-30T10:52:09.487Z,19.24
2018-08-30T10:53:09.454Z,19.00
2018-08-30T10:54:09.467Z,19.00
2018-08-30T10:55:09.389Z,18.99
2018-08-30T10:56:09.380Z,19.08
2018-08-30T10:57:09.324Z,18.99
2018-08-30T10:58:09.291Z,18.90
2018-08-30T10:59:09.256Z,18.93
2018-08-30T11:00:09.224Z,18.84
2018-08-30T11:01:09.193Z,18.89
2018-08-30T11:02:09.159Z,18.78
2018-08-30T11:03:09.128Z,18.71
2018-08-30T11:04:09.126Z,18.70
2018-08-30T11:05:09.058Z,18.71
2018-08-30T11:06:09.023Z,18.84
2018-08-30T11:07:08.991Z,18.81
2018-08-30T11:08:08.987Z,18.96
2018-08-30T11:09:08.943Z,19.19
2018-08-30T11:10:08.898Z,19.29
2018-08-30T11:11:08.858Z,19.34
2018-08-30T11:12:08.822Z,19.29
2018-08-30T11:13:08.943Z,19.31
2018-08-30T11:14:08.769Z,19.21
2018-08-30T11:15:08.726Z,19.15
2018-08-30T11:16:08.692Z,19.07
2018-08-30T11:17:08.654Z,18.98
2018-08-30T11:18:08.624Z,19.07
2018-08-30T11:19:08.589Z,19.00
2018-08-30T11:20:08.558Z,19.18
2018-08-30T11:21:08.528Z,19.30
2018-08-30T11:22:08.499Z,19.31
2018-08-30T11:23:08.459Z,19.34
2018-08-30T11:24:08.432Z,19.24
2018-08-30T11:25:08.390Z,19.19
2018-08-30T11:26:08.357Z,19.30
2018-08-30T11:27:08.328Z,19.18
2018-08-30T11:28:08.294Z,18.99
2018-08-30T11:29:08.265Z,18.98
2018-08-30T11:30:08.226Z,18.95
2018-08-30T11:31:08.195Z,18.90
2018-08-30T11:32:08.162Z,18.88
2018-08-30T11:33:08.132Z,18.84
2018-08-30T11:34:08.104Z,18.88
2018-08-30T11:35:08.063Z,18.93
2018-08-30T11:36:08.031Z,18.83
2018-08-30T11:37:07.994Z,18.83
2018-08-30T11:38:07.974Z,18.83
2018-08-30T11:39:07.940Z,18.88
2018-08-30T11:40:07.899Z,19.09
2018-08-30T11:41:07.904Z,19.30
2018-08-30T11:42:07.835Z,19.26
2018-08-30T11:43:07.828Z,19.36
2018-08-30T11:44:07.766Z,19.30
2018-08-30T11:45:07.734Z,19.36
2018-08-30T11:46:07.703Z,19.34
2018-08-30T11:47:07.669Z,19.29
2018-08-30T11:48:07.633Z,19.39
2018-08-30T11:49:07.599Z,19.48
2018-08-30T11:50:07.567Z,19.62
2018-08-30T11:51:07.583Z,19.79
2018-08-30T11:52:07.510Z,19.86
2018-08-30T11:53:07.473Z,19.84
2018-08-30T11:54:07.461Z,19.92
2018-08-30T11:55:07.404Z,19.89
2018-08-30T11:56:07.369Z,19.70
2018-08-30T11:57:07.334Z,19.56
2018-08-30T11:58:07.304Z,19.51
2018-08-30T11:59:07.270Z,19.54
2018-08-30T12:00:07.240Z,19.49
2018-08-30T12:01:07.209Z,19.47
2018-08-30T12:02:07.173Z,19.27
2018-08-30T12:03:07.151Z,19.30
2018-08-30T12:04:07.110Z,19.21
2018-08-30T12:05:07.098Z,19.18
2018-08-30T12:06:07.049Z,19.16
2018-08-30T12:07:07.012Z,19.12
2018-08-30T12:08:07.070Z,19.18
2018-08-30T12:09:06.940Z,19.16
2018-08-30T12:10:06.940Z,19.22
2018-08-30T12:11:07.080Z,19.24
2018-08-30T12:12:06.850Z,19.30
2018-08-30T12:13:06.819Z,19.47
2018-08-30T12:14:06.782Z,19.51
2018-08-30T12:15:06.749Z,19.64
2018-08-30T12:16:06.716Z,19.77
2018-08-30T12:17:06.679Z,19.95
2018-08-30T12:18:06.654Z,19.99
2018-08-30T12:19:06.617Z,20.06
2018-08-30T12:20:06.586Z,20.14
2018-08-30T12:21:06.554Z,20.18
2018-08-30T12:22:06.518Z,20.07
2018-08-30T12:23:06.483Z,20.07
2018-08-30T12:24:06.458Z,20.24
2018-08-30T12:25:06.423Z,20.04
2018-08-30T12:26:06.404Z,20.00
2018-08-30T12:27:06.357Z,19.96
2018-08-30T12:28:06.321Z,20.02
2018-08-30T12:29:06.351Z,19.82
2018-08-30T12:30:06.303Z,19.91
2018-08-30T12:31:06.249Z,19.92
2018-08-30T12:32:06.225Z,19.89
2018-08-30T12:33:06.174Z,19.86
2018-08-30T12:34:06.165Z,19.85
2018-08-30T12:35:06.208Z,19.85
2018-08-30T12:36:06.080Z,19.94
2018-08-30T12:37:06.055Z,19.95
2018-08-30T12:38:06.001Z,19.81
2018-08-30T12:39:06.015Z,19.95
2018-08-30T12:40:06.059Z,19.85
2018-08-30T12:41:06.015Z,19.89
2018-08-30T12:42:05.926Z,19.79
2018-08-30T12:43:05.841Z,19.79
2018-08-30T12:44:05.868Z,19.73
2018-08-30T12:45:05.856Z,19.69
2018-08-30T12:46:05.758Z,19.56
2018-08-30T12:47:05.726Z,19.59
2018-08-30T12:48:05.689Z,19.64
2018-08-30T12:49:05.649Z,19.66
2018-08-30T12:50:05.636Z,19.63
2018-08-30T12:51:05.690Z,19.51
2018-08-30T12:52:05.619Z,19.51
2018-08-30T12:53:05.507Z,19.66
2018-08-30T12:54:05.618Z,19.73
2018-08-30T12:55:05.569Z,19.79
2018-08-30T12:56:05.563Z,19.94
2018-08-30T12:57:05.499Z,20.11
2018-08-30T12:58:05.473Z,20.21
2018-08-30T12:59:05.421Z,20.19
2018-08-30T13:00:05.499Z,20.18
2018-08-30T13:01:05.267Z,19.89
2018-08-30T13:02:05.421Z,19.86
2018-08-30T13:03:05.393Z,19.63
2018-08-30T13:04:05.330Z,19.56
2018-08-30T13:05:05.277Z,19.51
2018-08-30T13:06:05.393Z,19.31
2018-08-30T13:07:05.220Z,19.37
2018-08-30T13:08:05.194Z,19.36
2018-08-30T13:09:05.362Z,19.34
2018-08-30T13:10:05.330Z,19.40
2018-08-30T13:11:05.194Z,19.40
2018-08-30T13:12:05.246Z,19.36
2018-08-30T13:13:05.099Z,19.37
2018-08-30T13:14:04.984Z,19.45
2018-08-30T13:15:05.266Z,19.45
2018-08-30T13:16:04.936Z,19.33
2018-08-30T13:17:04.901Z,19.33
2018-08-30T13:18:04.895Z,19.27
2018-08-30T13:19:04.804Z,19.30